| time (UTC) | temp F | wind direction | speed knots | gust knots | rain 1hr in | rain 24hr in | rain mn in | humidity % | barometer mb |
| 20260510214114 | 67 | 105 | 0.0 | 0.0 | 0.00 | 0.03 | 0.03 | 82 | 1015.6 |
| 20260510213611 | 67 | 71 | 0.0 | 0.9 | 0.00 | 0.03 | 0.03 | 80 | 1015.6 |
| 20260510213107 | 67 | 81 | 0.0 | 0.9 | 0.00 | 0.03 | 0.03 | 79 | 1015.2 |
| 20260510212604 | 68 | 73 | 0.0 | 0.9 | 0.00 | 0.03 | 0.03 | 79 | 1015.4 |
| 20260510212101 | 67 | 64 | 0.9 | 2.6 | 0.00 | 0.03 | 0.03 | 78 | 1015.3 |
| 20260510211558 | 68 | 83 | 0.9 | 2.6 | 0.00 | 0.03 | 0.03 | 79 | 1015.2 |
| 20260510211058 | 68 | 40 | 2.6 | 3.5 | 0.14 | 0.03 | 0.03 | 78 | 1015.4 |
| 20260510210555 | 69 | 315 | 1.7 | 2.6 | 0.07 | 0.02 | 0.02 | 74 | 1015.4 |
| 20260510210050 | 70 | 330 | 2.6 | 3.5 | 0.00 | 0.01 | 0.01 | 69 | 1015.3 |
| 20260510205549 | 73 | 276 | 7.0 | 8.7 | 0.00 | 0.01 | 0.01 | 61 | 1015.1 |
| 20260510205045 | 75 | 320 | 4.3 | 6.1 | 0.00 | 0.01 | 0.01 | 52 | 1015.1 |
| 20260510204542 | 76 | 94 | 0.9 | 2.6 | 0.00 | 0.01 | 0.01 | 49 | 1014.7 |
| 20260510204038 | 77 | 99 | 0.9 | 1.7 | 0.00 | 0.01 | 0.01 | 45 | 1014.4 |
| 20260510203535 | 77 | 262 | 1.7 | 5.2 | 0.00 | 0.01 | 0.01 | 45 | 1014.2 |
| 20260510203032 | 77 | 140 | 1.7 | 2.6 | 0.00 | 0.01 | 0.01 | 43 | 1014.3 |
| 20260510202531 | 78 | 208 | 2.6 | 5.2 | 0.00 | 0.01 | 0.01 | 42 | 1014.3 |
| 20260510202028 | 80 | 102 | 0.9 | 2.6 | 0.00 | 0.01 | 0.01 | 41 | 1014.4 |
| 20260510201525 | 81 | 201 | 1.7 | 2.6 | 0.00 | 0.01 | 0.01 | 40 | 1014.7 |
| 20260510201022 | 81 | 131 | 0.9 | 2.6 | 0.00 | 0.01 | 0.01 | 40 | 1014.8 |
| 20260510200517 | 80 | 95 | 0.9 | 2.6 | 0.00 | 0.01 | 0.01 | 42 | 1014.7 |
| 20260510200015 | 79 | 172 | 2.6 | 5.2 | 0.00 | 0.01 | 0.01 | 41 | 1014.8 |
| 20260510195513 | 78 | 114 | 0.0 | 0.9 | 0.00 | 0.01 | 0.01 | 43 | 1014.8 |
| 20260510195008 | 78 | 204 | 0.9 | 1.7 | 0.00 | 0.01 | 0.01 | 43 | 1015.0 |
| 20260510194504 | 78 | 128 | 0.0 | 2.6 | 0.00 | 0.01 | 0.01 | 46 | 1014.7 |
| 20260510194001 | 78 | 232 | 0.9 | 1.7 | 0.00 | 0.01 | 0.01 | 43 | 1015.0 |
| 20260510193500 | 78 | 115 | 0.0 | 0.9 | 0.00 | 0.01 | 0.01 | 44 | 1015.0 |
| 20260510192956 | 78 | 9 | 2.6 | 5.2 | 0.00 | 0.01 | 0.01 | 43 | 1014.9 |
| 20260510192451 | 77 | 308 | 0.9 | 1.7 | 0.00 | 0.01 | 0.01 | 45 | 1015.0 |
| 20260510191947 | 77 | 130 | 0.9 | 2.6 | 0.00 | 0.01 | 0.01 | 45 | 1015.2 |
| 20260510191444 | 77 | 123 | 1.7 | 3.5 | 0.00 | 0.01 | 0.01 | 44 | 1015.2 |
| 20260510190941 | 77 | 219 | 1.7 | 1.7 | 0.00 | 0.01 | 0.01 | 45 | 1015.2 |
| 20260510190438 | 77 | 248 | 1.7 | 5.2 | 0.00 | 0.01 | 0.01 | 45 | 1015.2 |
| 20260510185935 | 77 | 81 | 0.0 | 1.7 | 0.00 | 0.01 | 0.01 | 45 | 1015.4 |
| 20260510185432 | 77 | 325 | 3.5 | 6.1 | 0.00 | 0.01 | 0.01 | 45 | 1015.3 |
| 20260510184929 | 76 | 320 | 1.7 | 2.6 | 0.00 | 0.01 | 0.01 | 46 | 1015.3 |
| 20260510184427 | 76 | 89 | 0.0 | 2.6 | 0.00 | 0.01 | 0.01 | 47 | 1015.2 |
| 20260510183926 | 77 | 317 | 5.2 | 7.8 | 0.00 | 0.01 | 0.01 | 44 | 1015.1 |
| 20260510183423 | 77 | 32 | 0.9 | 1.7 | 0.00 | 0.01 | 0.01 | 43 | 1015.2 |
| 20260510182918 | 77 | 226 | 0.9 | 3.5 | 0.00 | 0.01 | 0.01 | 43 | 1015.0 |
| 20260510182415 | 78 | 129 | 2.6 | 11.3 | 0.00 | 0.01 | 0.01 | 42 | 1015.2 |
| 20260510181910 | 79 | 235 | 1.7 | 6.1 | 0.00 | 0.01 | 0.01 | 41 | 1015.0 |
| 20260510181408 | 80 | 220 | 2.6 | 3.5 | 0.00 | 0.01 | 0.01 | 41 | 1015.2 |
| 20260510180904 | 80 | 126 | 1.7 | 2.6 | 0.00 | 0.01 | 0.01 | 43 | 1015.1 |
| 20260510180401 | 80 | 153 | 0.9 | 5.2 | 0.00 | 0.01 | 0.01 | 40 | 1014.8 |
| 20260510175858 | 80 | 226 | 0.9 | 5.2 | 0.00 | 0.01 | 0.01 | 39 | 1015.3 |
| 20260510175354 | 80 | 215 | 1.7 | 2.6 | 0.00 | 0.01 | 0.01 | 43 | 1015.2 |
| 20260510174850 | 79 | 118 | 0.0 | 2.6 | 0.00 | 0.01 | 0.01 | 44 | 1015.1 |
| 20260510174348 | 78 | 268 | 0.9 | 2.6 | 0.00 | 0.01 | 0.01 | 46 | 1015.0 |
| 20260510173844 | 79 | 77 | 1.7 | 7.0 | 0.00 | 0.01 | 0.01 | 43 | 1015.1 |
| 20260510173340 | 78 | 204 | 1.7 | 5.2 | 0.00 | 0.01 | 0.01 | 43 | 1015.2 |
| 20260510172836 | 79 | 218 | 4.3 | 5.2 | 0.00 | 0.01 | 0.01 | 42 | 1015.2 |
| 20260510172332 | 78 | 230 | 0.9 | 3.5 | 0.00 | 0.01 | 0.01 | 45 | 1015.3 |
| 20260510171829 | 77 | 90 | 3.5 | 3.5 | 0.00 | 0.01 | 0.01 | 46 | 1015.4 |
| 20260510171326 | 77 | 217 | 1.7 | 5.2 | 0.00 | 0.01 | 0.01 | 46 | 1015.3 |
| 20260510170823 | 77 | 109 | 0.0 | 2.6 | 0.00 | 0.01 | 0.01 | 48 | 1015.2 |
| 20260510170319 | 76 | 223 | 0.9 | 5.2 | 0.00 | 0.01 | 0.01 | 51 | 1015.4 |
| 20260510165815 | 75 | 108 | 0.9 | 3.5 | 0.00 | 0.01 | 0.01 | 51 | 1015.5 |
| 20260510165312 | 75 | 198 | 1.7 | 3.5 | 0.00 | 0.01 | 0.01 | 52 | 1015.6 |
| 20260510164809 | 75 | 98 | 0.9 | 3.5 | 0.00 | 0.01 | 0.01 | 51 | 1015.5 |
| 20260510164307 | 75 | 107 | 0.0 | 2.6 | 0.00 | 0.01 | 0.01 | 54 | 1015.7 |
| 20260510163806 | 75 | 22 | 1.7 | 2.6 | 0.00 | 0.01 | 0.01 | 53 | 1015.6 |
| 20260510163302 | 75 | 254 | 5.2 | 7.8 | 0.00 | 0.01 | 0.01 | 51 | 1015.6 |
| 20260510162802 | 75 | 355 | 0.9 | 3.5 | 0.00 | 0.01 | 0.01 | 52 | 1015.4 |
| 20260510162259 | 74 | 104 | 0.9 | 6.1 | 0.00 | 0.01 | 0.01 | 54 | 1015.5 |
| 20260510161755 | 73 | 103 | 0.9 | 2.6 | 0.00 | 0.01 | 0.01 | 57 | 1015.5 |
| 20260510161251 | 72 | 77 | 1.7 | 2.6 | 0.00 | 0.01 | 0.01 | 56 | 1015.7 |
| 20260510160748 | 72 | 19 | 1.7 | 3.5 | 0.00 | 0.01 | 0.01 | 54 | 1015.7 |
| 20260510160244 | 72 | 309 | 4.3 | 7.0 | 0.00 | 0.01 | 0.01 | 55 | 1015.7 |
| 20260510155740 | 72 | 256 | 2.6 | 3.5 | 0.00 | 0.01 | 0.01 | 56 | 1015.7 |
| 20260510155236 | 72 | 296 | 3.5 | 5.2 | 0.00 | 0.01 | 0.01 | 56 | 1015.7 |
| 20260510154732 | 71 | 97 | 0.0 | 2.6 | 0.00 | 0.01 | 0.01 | 60 | 1015.8 |
| 20260510154228 | 70 | 177 | 0.9 | 2.6 | 0.00 | 0.01 | 0.01 | 61 | 1015.6 |
| 20260510153723 | 70 | 66 | 0.9 | 2.6 | 0.00 | 0.01 | 0.01 | 65 | 1015.7 |
| 20260510153219 | 70 | 22 | 2.6 | 6.1 | 0.00 | 0.01 | 0.01 | 61 | 1015.8 |
| 20260510152716 | 69 | 322 | 1.7 | 2.6 | 0.00 | 0.01 | 0.01 | 64 | 1016.1 |
| 20260510152212 | 69 | 238 | 1.7 | 3.5 | 0.00 | 0.01 | 0.01 | 63 | 1016.1 |
| 20260510151709 | 69 | 133 | 2.6 | 3.5 | 0.00 | 0.01 | 0.01 | 63 | 1016.1 |
| 20260510151208 | 68 | 102 | 0.0 | 0.9 | 0.00 | 0.01 | 0.01 | 67 | 1016.3 |
| 20260510150703 | 68 | 195 | 0.9 | 2.6 | 0.00 | 0.01 | 0.01 | 66 | 1016.2 |
| 20260510150158 | 68 | 338 | 1.7 | 2.6 | 0.00 | 0.01 | 0.01 | 65 | 1016.3 |
| 20260510145655 | 67 | 324 | 2.6 | 2.6 | 0.00 | 0.01 | 0.01 | 68 | 1016.2 |
| 20260510145151 | 67 | 201 | 1.7 | 1.7 | 0.00 | 0.01 | 0.01 | 69 | 1016.1 |
| 20260510144647 | 67 | 106 | 0.0 | 0.9 | 0.00 | 0.01 | 0.01 | 71 | 1016.1 |
| 20260510144144 | 66 | 153 | 2.6 | 2.6 | 0.00 | 0.01 | 0.01 | 71 | 1015.7 |
| 20260510143639 | 65 | 244 | 0.9 | 1.7 | 0.00 | 0.01 | 0.01 | 73 | 1015.8 |
| 20260510143136 | 65 | 114 | 0.9 | 1.7 | 0.00 | 0.01 | 0.01 | 75 | 1016.2 |
| 20260510142632 | 64 | 17 | 0.0 | 0.9 | 0.00 | 0.01 | 0.01 | 74 | 1016.1 |
| 20260510142129 | 64 | 98 | 0.0 | 1.7 | 0.00 | 0.01 | 0.01 | 75 | 1016.3 |
| 20260510141626 | 63 | 102 | 0.0 | 0.9 | 0.00 | 0.01 | 0.01 | 77 | 1016.2 |
| 20260510141124 | 62 | 53 | 0.9 | 1.7 | 0.00 | 0.01 | 0.01 | 77 | 1016.2 |
| 20260510140620 | 62 | 68 | 1.7 | 1.7 | 0.00 | 0.01 | 0.01 | 78 | 1016.2 |
| 20260510140120 | 62 | 55 | 0.9 | 0.9 | 0.00 | 0.01 | 0.01 | 80 | 1016.3 |
| 20260510135615 | 62 | 73 | 0.9 | 1.7 | 0.00 | 0.01 | 0.01 | 81 | 1016.1 |
| 20260510135112 | 60 | 104 | 0.0 | 1.7 | 0.00 | 0.01 | 0.01 | 85 | 1015.9 |
| 20260510134609 | 59 | 202 | 0.9 | 1.7 | 0.00 | 0.01 | 0.01 | 83 | 1016.2 |
| 20260510134106 | 58 | 102 | 0.0 | 0.9 | 0.00 | 0.01 | 0.01 | 87 | 1015.6 |
| 20260510133602 | 58 | 83 | 0.0 | 0.9 | 0.00 | 0.01 | 0.01 | 90 | 1015.8 |
| 20260510133057 | 58 | 68 | 0.9 | 1.7 | 0.00 | 0.01 | 0.01 | 92 | 1015.8 |
| 20260510132554 | 57 | 92 | 0.0 | 0.9 | 0.00 | 0.01 | 0.01 | 95 | 1016.3 |
| 20260510132051 | 56 | 95 | 0.0 | 0.9 | 0.00 | 0.01 | 0.01 | 95 | 1016.2 |
| 20260510131549 | 56 | 75 | 0.0 | 0.9 | 0.00 | 0.01 | 0.01 | 95 | 1016.1 |
| 20260510131046 | 55 | 112 | 0.0 | 0.0 | 0.00 | 0.01 | 0.01 | 96 | 1016.4 |
| 20260510130542 | 55 | 323 | 1.7 | 2.6 | 0.00 | 0.01 | 0.01 | 96 | 1016.4 |
| 20260510130040 | 55 | 322 | 0.0 | 1.7 | 0.00 | 0.01 | 0.01 | 97 | 1016.2 |
| 20260510125536 | 54 | 119 | 0.9 | 1.7 | 0.00 | 0.01 | 0.01 | 97 | 1016.1 |
| 20260510125032 | 54 | 69 | 0.0 | 0.9 | 0.00 | 0.01 | 0.01 | 97 | 1015.8 |
| 20260510124529 | 54 | 112 | 0.0 | 0.9 | 0.00 | 0.01 | 0.01 | 97 | 1015.8 |
| 20260510124026 | 54 | 110 | 0.0 | 0.9 | 0.00 | 0.01 | 0.01 | 97 | 1015.8 |
| 20260510123521 | 54 | 104 | 0.0 | 0.0 | 0.00 | 0.01 | 0.01 | 97 | 1015.5 |
| 20260510123018 | 54 | 317 | 1.7 | 1.7 | 0.00 | 0.01 | 0.01 | 97 | 1015.6 |
| 20260510122513 | 53 | 65 | 0.9 | 1.7 | 0.00 | 0.01 | 0.01 | 97 | 1015.6 |
| 20260510122010 | 53 | 86 | 0.0 | 0.9 | 0.00 | 0.01 | 0.01 | 97 | 1015.7 |
| 20260510121507 | 53 | 331 | 0.9 | 1.7 | 0.00 | 0.01 | 0.01 | 97 | 1015.9 |
| 20260510121005 | 53 | 78 | 0.0 | 0.9 | 0.00 | 0.01 | 0.01 | 97 | 1015.5 |
| 20260510120502 | 53 | 76 | 0.0 | 0.9 | 0.00 | 0.01 | 0.01 | 97 | 1015.7 |
| 20260510115957 | 53 | 81 | 0.9 | 0.9 | 0.00 | 0.01 | 0.01 | 97 | 1015.3 |
| 20260510115455 | 53 | 89 | 0.0 | 0.9 | 0.00 | 0.01 | 0.01 | 97 | 1015.4 |
| 20260510114950 | 53 | 82 | 0.0 | 0.9 | 0.00 | 0.01 | 0.01 | 98 | 1015.5 |
| 20260510114447 | 53 | 85 | 0.0 | 0.0 | 0.00 | 0.01 | 0.01 | 98 | 1015.4 |
| 20260510113943 | 52 | 97 | 0.0 | 0.9 | 0.00 | 0.01 | 0.01 | 98 | 1015.5 |
| 20260510113438 | 52 | 114 | 0.9 | 1.7 | 0.00 | 0.01 | 0.01 | 98 | 1015.4 |
| 20260510112936 | 52 | 74 | 0.0 | 0.9 | 0.00 | 0.01 | 0.01 | 98 | 1015.2 |
| 20260510112433 | 52 | 57 | 0.9 | 1.7 | 0.00 | 0.01 | 0.01 | 98 | 1015.1 |
| 20260510111929 | 52 | 61 | 0.0 | 0.9 | 0.00 | 0.01 | 0.01 | 98 | 1014.8 |
| 20260510111425 | 52 | 44 | 0.9 | 2.6 | 0.00 | 0.01 | 0.01 | 98 | 1015.0 |
| 20260510110921 | 51 | 59 | 0.0 | 2.6 | 0.00 | 0.01 | 0.01 | 98 | 1014.9 |
| 20260510110418 | 51 | 60 | 0.0 | 1.7 | 0.00 | 0.01 | 0.01 | 98 | 1014.8 |
| 20260510105914 | 51 | 65 | 0.0 | 0.9 | 0.00 | 0.01 | 0.01 | 98 | 1014.9 |
| 20260510105415 | 51 | 86 | 0.0 | 0.9 | 0.00 | 0.01 | 0.01 | 98 | 1014.9 |
| 20260510104910 | 51 | 74 | 0.0 | 1.7 | 0.00 | 0.01 | 0.01 | 98 | 1014.9 |
| 20260510104407 | 51 | 22 | 0.9 | 1.7 | 0.00 | 0.01 | 0.01 | 98 | 1014.6 |
| 20260510103904 | 51 | 26 | 0.9 | 0.9 | 0.00 | 0.01 | 0.01 | 98 | 1014.5 |
| 20260510103401 | 51 | 80 | 0.0 | 0.9 | 0.00 | 0.01 | 0.01 | 98 | 1014.4 |
| 20260510102856 | 51 | 100 | 0.9 | 0.9 | 0.00 | 0.01 | 0.01 | 98 | 1014.3 |
| 20260510102353 | 51 | 84 | 0.0 | 0.0 | 0.00 | 0.01 | 0.01 | 98 | 1014.5 |
| 20260510101850 | 51 | 63 | 0.0 | 1.7 | 0.00 | 0.01 | 0.01 | 98 | 1014.5 |
| 20260510101348 | 51 | 55 | 0.9 | 1.7 | 0.00 | 0.01 | 0.01 | 98 | 1014.5 |
| 20260510100844 | 51 | 75 | 0.0 | 1.7 | 0.00 | 0.01 | 0.01 | 98 | 1014.7 |
| 20260510100341 | 51 | 72 | 0.0 | 0.9 | 0.00 | 0.01 | 0.01 | 98 | 1014.7 |
| 20260510095838 | 50 | 85 | 0.9 | 0.9 | 0.00 | 0.01 | 0.01 | 98 | 1014.6 |
| 20260510095333 | 50 | 55 | 0.9 | 1.7 | 0.00 | 0.01 | 0.01 | 98 | 1014.5 |
| 20260510094832 | 50 | 352 | 3.5 | 5.2 | 0.00 | 0.01 | 0.01 | 98 | 1014.5 |
| 20260510094327 | 50 | 30 | 1.7 | 2.6 | 0.00 | 0.01 | 0.01 | 98 | 1014.4 |
| 20260510093824 | 50 | 53 | 0.9 | 1.7 | 0.00 | 0.01 | 0.01 | 98 | 1014.2 |
| 20260510093320 | 50 | 70 | 1.7 | 2.6 | 0.00 | 0.01 | 0.01 | 98 | 1014.6 |
| 20260510092816 | 50 | 73 | 0.9 | 5.2 | 0.00 | 0.01 | 0.01 | 97 | 1014.0 |
| 20260510092312 | 51 | 340 | 5.2 | 7.0 | 0.00 | 0.01 | 0.01 | 97 | 1014.7 |
| 20260510091808 | 51 | 59 | 0.9 | 2.6 | 0.05 | 0.01 | 0.01 | 97 | 1014.4 |
| 20260510091306 | 51 | 85 | 0.0 | 5.2 | 0.05 | 0.01 | 0.01 | 97 | 1014.0 |
| 20260510090802 | 51 | 38 | 1.7 | 3.5 | 0.00 | 0.00 | 0.00 | 98 | 1014.0 |
| 20260510090259 | 51 | 52 | 1.7 | 2.6 | 0.00 | 0.00 | 0.00 | 98 | 1014.1 |
| 20260510085755 | 51 | 76 | 0.9 | 0.9 | 0.00 | 0.00 | 0.00 | 98 | 1013.7 |
| 20260510085249 | 51 | 70 | 0.9 | 1.7 | 0.00 | 0.00 | 0.00 | 98 | 1013.9 |
| 20260510084745 | 51 | 78 | 0.0 | 0.9 | 0.00 | 0.00 | 0.00 | 98 | 1013.7 |
| 20260510084242 | 51 | 82 | 0.0 | 0.0 | 0.00 | 0.00 | 0.00 | 97 | 1013.6 |
| 20260510083739 | 51 | 81 | 0.0 | 0.9 | 0.00 | 0.00 | 0.00 | 97 | 1013.7 |
| 20260510083236 | 51 | 72 | 0.9 | 0.9 | 0.00 | 0.00 | 0.00 | 97 | 1013.8 |
| 20260510082731 | 51 | 93 | 0.0 | 0.9 | 0.00 | 0.00 | 0.00 | 98 | 1013.9 |
| 20260510082229 | 51 | 88 | 0.0 | 0.0 | 0.00 | 0.00 | 0.00 | 97 | 1013.6 |
| 20260510081728 | 51 | 77 | 0.0 | 0.9 | 0.00 | 0.00 | 0.00 | 97 | 1013.5 |
| 20260510081224 | 50 | 77 | 0.0 | 0.9 | 0.00 | 0.00 | 0.00 | 97 | 1013.6 |
| 20260510080719 | 50 | 42 | 0.9 | 0.9 | 0.00 | 0.00 | 0.00 | 97 | 1013.7 |
| 20260510080215 | 50 | 66 | 0.0 | 1.7 | 0.00 | 0.00 | 0.00 | 97 | 1013.8 |
| 20260510075712 | 50 | 81 | 0.0 | 0.9 | 0.00 | 0.00 | 0.00 | 97 | 1013.7 |
| 20260510075209 | 50 | 55 | 0.9 | 1.7 | 0.00 | 0.00 | 0.00 | 98 | 1013.6 |
| 20260510074706 | 50 | 78 | 0.0 | 1.7 | 0.00 | 0.00 | 0.00 | 98 | 1013.6 |
| 20260510074202 | 50 | 95 | 0.0 | 0.9 | 0.00 | 0.00 | 0.00 | 98 | 1013.4 |
| 20260510073659 | 50 | 61 | 0.9 | 0.9 | 0.00 | 0.00 | 0.00 | 98 | 1013.5 |
| 20260510073155 | 48 | 57 | 0.9 | 1.7 | 0.00 | 0.00 | 0.00 | 98 | 1013.3 |
| 20260510072651 | 47 | 91 | 0.0 | 0.0 | 0.00 | 0.00 | 0.00 | 97 | 1013.3 |
| 20260510072148 | 47 | 92 | 0.0 | 0.0 | 0.00 | 0.00 | 0.00 | 97 | 1013.3 |
| 20260510071644 | 47 | 91 | 0.0 | 0.0 | 0.00 | 0.00 | 0.00 | 97 | 1013.1 |
| 20260510071141 | 46 | 96 | 0.0 | 0.0 | 0.00 | 0.00 | 0.00 | 97 | 1013.0 |
| 20260510070639 | 46 | 96 | 0.0 | 0.0 | 0.00 | 0.00 | 0.00 | 97 | 1013.0 |
| 20260510070136 | 47 | 96 | 0.0 | 0.0 | 0.00 | 0.00 | 0.00 | 97 | 1013.0 |
| 20260510065631 | 47 | 96 | 0.0 | 0.0 | 0.00 | 0.00 | 0.00 | 97 | 1013.2 |
| 20260510065128 | 47 | 95 | 0.0 | 0.0 | 0.00 | 0.00 | 0.00 | 97 | 1013.1 |
| 20260510064624 | 47 | 95 | 0.0 | 0.0 | 0.00 | 0.00 | 0.00 | 97 | 1013.4 |
| 20260510064121 | 47 | 95 | 0.0 | 0.0 | 0.00 | 0.00 | 0.00 | 97 | 1013.1 |
| 20260510063618 | 47 | 95 | 0.0 | 0.0 | 0.00 | 0.00 | 0.00 | 97 | 1013.2 |
| 20260510063115 | 47 | 95 | 0.0 | 0.0 | 0.00 | 0.00 | 0.00 | 97 | 1013.0 |
| 20260510062610 | 47 | 95 | 0.0 | 0.0 | 0.00 | 0.00 | 0.00 | 97 | 1012.9 |
| 20260510062106 | 47 | 95 | 0.0 | 0.0 | 0.00 | 0.00 | 0.00 | 97 | 1013.3 |
| 20260510061603 | 47 | 95 | 0.0 | 0.0 | 0.00 | 0.00 | 0.00 | 97 | 1013.2 |
| 20260510061100 | 48 | 95 | 0.0 | 0.0 | 0.00 | 0.00 | 0.00 | 97 | 1013.1 |
| 20260510060555 | 48 | 95 | 0.0 | 0.0 | 0.00 | 0.00 | 0.00 | 97 | 1013.0 |
| 20260510060053 | 48 | 95 | 0.0 | 0.0 | 0.00 | 0.00 | 0.00 | 97 | 1013.2 |
| 20260510055548 | 48 | 95 | 0.0 | 0.0 | 0.00 | 0.00 | 0.00 | 97 | 1013.3 |
| 20260510055047 | 48 | 95 | 0.0 | 0.0 | 0.00 | 0.00 | 0.00 | 97 | 1013.1 |
| 20260510054542 | 48 | 94 | 0.0 | 0.0 | 0.00 | 0.00 | 0.00 | 97 | 1013.4 |
| 20260510054037 | 48 | 95 | 0.0 | 0.0 | 0.00 | 0.00 | 0.00 | 97 | 1013.4 |
| 20260510053532 | 48 | 95 | 0.0 | 0.0 | 0.00 | 0.00 | 0.00 | 97 | 1013.4 |
| 20260510053029 | 48 | 95 | 0.0 | 0.0 | 0.00 | 0.00 | 0.00 | 97 | 1013.5 |
| 20260510052525 | 48 | 95 | 0.0 | 0.0 | 0.00 | 0.00 | 0.00 | 97 | 1013.4 |
| 20260510052021 | 48 | 95 | 0.0 | 0.0 | 0.00 | 0.00 | 0.00 | 97 | 1013.6 |
| 20260510051517 | 49 | 95 | 0.0 | 0.0 | 0.00 | 0.00 | 0.00 | 97 | 1013.4 |
| 20260510051014 | 49 | 95 | 0.0 | 0.0 | 0.00 | 0.00 | 0.00 | 97 | 1013.7 |
| 20260510050511 | 49 | 95 | 0.0 | 0.0 | 0.00 | 0.00 | 0.00 | 97 | 1013.5 |
| 20260510050008 | 48 | 94 | 0.0 | 0.0 | 0.00 | 0.00 | 0.00 | 97 | 1013.8 |
| 20260510045505 | 49 | 94 | 0.0 | 0.0 | 0.00 | 0.00 | 0.00 | 97 | 1013.6 |
| 20260510045001 | 49 | 94 | 0.0 | 0.0 | 0.00 | 0.00 | 0.00 | 97 | 1013.6 |
| 20260510044458 | 48 | 94 | 0.0 | 0.0 | 0.00 | 0.00 | 0.00 | 96 | 1013.7 |
| 20260510043956 | 49 | 94 | 0.0 | 0.0 | 0.00 | 0.00 | 0.00 | 96 | 1013.8 |
| 20260510043451 | 49 | 94 | 0.0 | 0.0 | 0.00 | 0.00 | 0.00 | 96 | 1013.7 |
| 20260510042949 | 49 | 94 | 0.0 | 0.0 | 0.00 | 0.00 | 0.00 | 96 | 1013.8 |
| 20260510042445 | 48 | 94 | 0.0 | 0.0 | 0.00 | 0.00 | 0.00 | 96 | 1013.9 |
| 20260510041941 | 49 | 93 | 0.0 | 0.0 | 0.00 | 0.00 | 0.00 | 96 | 1013.8 |
| 20260510041438 | 49 | 93 | 0.0 | 0.0 | 0.00 | 0.00 | 0.00 | 96 | 1013.9 |
| 20260510040936 | 49 | 87 | 0.0 | 0.0 | 0.00 | 0.00 | 0.00 | 96 | 1013.9 |
| 20260510040432 | 49 | 104 | 0.0 | 0.0 | 0.00 | 0.00 | 0.00 | 96 | 1013.8 |
| 20260510035928 | 49 | 107 | 0.0 | 0.0 | 0.00 | 0.01 | 0.01 | 96 | 1014.0 |
| 20260510035425 | 50 | 107 | 0.0 | 0.0 | 0.00 | 0.01 | 0.01 | 96 | 1013.8 |
| 20260510034925 | 50 | 107 | 0.0 | 0.0 | 0.00 | 0.01 | 0.01 | 96 | 1013.8 |
| 20260510034424 | 50 | 108 | 0.0 | 0.0 | 0.00 | 0.01 | 0.01 | 96 | 1013.8 |
| 20260510033919 | 49 | 96 | 0.0 | 0.0 | 0.00 | 0.01 | 0.01 | 96 | 1013.4 |
| 20260510033416 | 50 | 96 | 0.0 | 0.0 | 0.00 | 0.01 | 0.01 | 96 | 1013.6 |
| 20260510032913 | 50 | 96 | 0.0 | 0.0 | 0.00 | 0.01 | 0.01 | 96 | 1013.6 |
| 20260510032409 | 50 | 96 | 0.0 | 0.0 | 0.00 | 0.01 | 0.01 | 96 | 1013.4 |
| 20260510031905 | 50 | 96 | 0.0 | 0.0 | 0.00 | 0.01 | 0.01 | 96 | 1013.4 |
| 20260510031401 | 50 | 96 | 0.0 | 0.0 | 0.00 | 0.01 | 0.01 | 96 | 1013.4 |
| 20260510030900 | 50 | 96 | 0.0 | 0.0 | 0.00 | 0.01 | 0.01 | 96 | 1013.2 |
| 20260510030357 | 50 | 96 | 0.0 | 0.0 | 0.00 | 0.01 | 0.01 | 96 | 1013.4 |
| 20260510025855 | 50 | 96 | 0.0 | 0.0 | 0.00 | 0.01 | 0.01 | 96 | 1013.3 |
| 20260510025352 | 50 | 96 | 0.0 | 0.0 | 0.00 | 0.01 | 0.01 | 96 | 1013.3 |
| 20260510024849 | 50 | 96 | 0.0 | 0.0 | 0.00 | 0.01 | 0.01 | 95 | 1013.4 |
| 20260510024346 | 50 | 96 | 0.0 | 0.0 | 0.00 | 0.01 | 0.01 | 95 | 1013.4 |
| 20260510023842 | 51 | 96 | 0.0 | 0.0 | 0.00 | 0.01 | 0.01 | 95 | 1013.2 |
| 20260510023338 | 51 | 96 | 0.0 | 0.0 | 0.00 | 0.01 | 0.01 | 95 | 1013.5 |
| 20260510022836 | 51 | 96 | 0.0 | 0.0 | 0.00 | 0.01 | 0.01 | 95 | 1013.3 |
| 20260510022335 | 51 | 97 | 0.0 | 0.0 | 0.00 | 0.01 | 0.01 | 95 | 1013.5 |
| 20260510021834 | 51 | 97 | 0.0 | 0.0 | 0.00 | 0.01 | 0.01 | 95 | 1013.4 |
| 20260510021333 | 51 | 97 | 0.0 | 0.0 | 0.00 | 0.01 | 0.01 | 95 | 1013.3 |
| 20260510020828 | 51 | 97 | 0.0 | 0.0 | 0.00 | 0.01 | 0.01 | 95 | 1013.0 |
| 20260510020328 | 51 | 97 | 0.0 | 0.0 | 0.00 | 0.01 | 0.01 | 95 | 1013.1 |
| 20260510015824 | 51 | 97 | 0.0 | 0.0 | 0.00 | 0.01 | 0.01 | 95 | 1013.2 |
| 20260510015321 | 52 | 97 | 0.0 | 0.0 | 0.00 | 0.01 | 0.01 | 95 | 1013.1 |
| 20260510014816 | 52 | 97 | 0.0 | 0.0 | 0.00 | 0.01 | 0.01 | 95 | 1013.2 |
| 20260510014313 | 51 | 96 | 0.0 | 0.0 | 0.00 | 0.01 | 0.01 | 94 | 1013.1 |
| 20260510013809 | 52 | 96 | 0.0 | 0.0 | 0.00 | 0.01 | 0.01 | 94 | 1013.1 |
| 20260510013306 | 52 | 96 | 0.0 | 0.0 | 0.00 | 0.01 | 0.01 | 94 | 1013.3 |
| 20260510012801 | 52 | 94 | 0.0 | 0.0 | 0.00 | 0.01 | 0.01 | 94 | 1013.1 |
| 20260510012301 | 52 | 97 | 0.0 | 0.0 | 0.00 | 0.01 | 0.01 | 93 | 1013.3 |
| 20260510011800 | 52 | 97 | 0.0 | 0.0 | 0.00 | 0.01 | 0.01 | 93 | 1013.1 |
| 20260510011256 | 53 | 97 | 0.0 | 0.0 | 0.00 | 0.01 | 0.01 | 94 | 1013.2 |
| 20260510010753 | 53 | 95 | 0.0 | 0.0 | 0.00 | 0.01 | 0.01 | 93 | 1013.0 |
| 20260510010250 | 53 | 95 | 0.0 | 0.0 | 0.00 | 0.01 | 0.01 | 93 | 1013.1 |
| 20260510005747 | 53 | 96 | 0.0 | 0.0 | 0.00 | 0.01 | 0.01 | 93 | 1012.9 |
| 20260510005243 | 53 | 97 | 0.0 | 0.0 | 0.00 | 0.01 | 0.01 | 92 | 1012.7 |
| 20260510004741 | 54 | 97 | 0.0 | 0.0 | 0.00 | 0.01 | 0.01 | 92 | 1012.9 |
| 20260510004239 | 54 | 97 | 0.0 | 0.0 | 0.00 | 0.01 | 0.01 | 92 | 1012.9 |
| 20260510003736 | 54 | 97 | 0.0 | 0.0 | 0.00 | 0.01 | 0.01 | 91 | 1012.9 |
| 20260510003232 | 54 | 97 | 0.0 | 0.0 | 0.00 | 0.01 | 0.01 | 91 | 1013.0 |
| 20260510002731 | 55 | 97 | 0.0 | 0.0 | 0.00 | 0.01 | 0.01 | 91 | 1013.1 |
| 20260510002229 | 55 | 90 | 0.0 | 0.0 | 0.00 | 0.01 | 0.01 | 90 | 1013.0 |
| 20260510001725 | 55 | 90 | 0.0 | 0.0 | 0.00 | 0.01 | 0.01 | 89 | 1013.0 |
| 20260510001224 | 56 | 104 | 0.0 | 0.0 | 0.00 | 0.01 | 0.01 | 88 | 1012.9 |
| 20260510000719 | 56 | 104 | 0.0 | 0.0 | 0.00 | 0.01 | 0.01 | 88 | 1012.9 |
| 20260510000218 | 57 | 105 | 0.0 | 0.9 | 0.00 | 0.01 | 0.01 | 87 | 1012.8 |
| 20260509235714 | 57 | 87 | 0.0 | 0.0 | 0.00 | 0.01 | 0.01 | 85 | 1012.7 |
| 20260509235210 | 57 | 85 | 0.0 | 0.0 | 0.00 | 0.01 | 0.01 | 84 | 1012.9 |
| 20260509234706 | 58 | 86 | 0.0 | 0.0 | 0.00 | 0.01 | 0.01 | 84 | 1012.8 |
| 20260509234203 | 58 | 80 | 0.0 | 0.9 | 0.00 | 0.01 | 0.01 | 82 | 1012.8 |
| 20260509233701 | 58 | 98 | 0.0 | 0.9 | 0.00 | 0.01 | 0.01 | 82 | 1012.7 |
| 20260509233159 | 59 | 84 | 0.0 | 0.9 | 0.00 | 0.01 | 0.01 | 81 | 1012.7 |
| 20260509232655 | 59 | 95 | 0.9 | 1.7 | 0.00 | 0.01 | 0.01 | 81 | 1012.5 |
| 20260509232151 | 59 | 72 | 1.7 | 1.7 | 0.00 | 0.01 | 0.01 | 81 | 1012.5 |
| 20260509231648 | 59 | 51 | 0.9 | 1.7 | 0.00 | 0.01 | 0.01 | 82 | 1012.5 |
| 20260509231146 | 59 | 59 | 0.9 | 3.5 | 0.00 | 0.01 | 0.01 | 82 | 1012.3 |
| 20260509230643 | 59 | 88 | 0.0 | 3.5 | 0.00 | 0.01 | 0.01 | 83 | 1012.3 |
| 20260509230140 | 59 | 103 | 1.7 | 2.6 | 0.00 | 0.01 | 0.01 | 83 | 1012.3 |
| 20260509225635 | 59 | 91 | 1.7 | 2.6 | 0.00 | 0.01 | 0.01 | 83 | 1012.5 |
| 20260509225131 | 58 | 37 | 2.6 | 2.6 | 0.00 | 0.01 | 0.01 | 83 | 1012.4 |
| 20260509224626 | 58 | 84 | 0.0 | 1.7 | 0.00 | 0.01 | 0.01 | 84 | 1012.8 |
| 20260509224124 | 58 | 75 | 0.9 | 2.6 | 0.00 | 0.01 | 0.01 | 84 | 1012.6 |
| 20260509223621 | 59 | 50 | 0.9 | 1.7 | 0.00 | 0.01 | 0.01 | 84 | 1012.6 |
| 20260509223118 | 58 | 67 | 0.0 | 1.7 | 0.00 | 0.01 | 0.01 | 84 | 1012.8 |
| 20260509222614 | 59 | 59 | 0.9 | 1.7 | 0.00 | 0.01 | 0.01 | 84 | 1012.9 |
| 20260509222110 | 59 | 55 | 0.0 | 1.7 | 0.00 | 0.01 | 0.01 | 83 | 1012.8 |
| 20260509221606 | 59 | 37 | 0.9 | 1.7 | 0.00 | 0.01 | 0.01 | 83 | 1012.6 |
| 20260509221102 | 58 | 90 | 1.7 | 2.6 | 0.00 | 0.01 | 0.01 | 82 | 1012.8 |
| 20260509220558 | 59 | 82 | 0.0 | 0.9 | 0.00 | 0.01 | 0.01 | 83 | 1012.8 |
| 20260509220054 | 59 | 69 | 0.9 | 0.9 | 0.00 | 0.01 | 0.01 | 83 | 1013.0 |
| 20260509215550 | 59 | 71 | 0.9 | 1.7 | 0.00 | 0.01 | 0.01 | 82 | 1013.1 |
| 20260509215048 | 59 | 63 | 3.5 | 3.5 | 0.00 | 0.01 | 0.01 | 80 | 1013.3 |
| 20260509214544 | 59 | 47 | 1.7 | 3.5 | 0.00 | 0.01 | 0.01 | 78 | 1013.0 |